Time;durP1;ratioP1;P1;durP2;ratioP2;P2;SDS_P1;SDS_P2;PMS_P1;PMS_P2;Temp;Humidity;BMP_temperature;BMP_pressure;BME280_temperature;BME280_humidity;BME280_pressure;Samples;Min_cycle;Max_cycle;Signal;HPM_P1;HPM_P2
2023/05/24 00:00:11;;;;;;;9.27;3.20;;;;;;;;;;4999365;28;20194;-69
2023/05/24 00:02:40;;;;;;;7.33;3.03;;;;;;;;;;5002897;28;20456;-70
2023/05/24 00:05:06;;;;;;;8.83;3.10;;;;;;;;;;5003115;28;20309;-70
2023/05/24 00:07:31;;;;;;;6.73;2.93;;;;;;;;;;5004559;28;20555;-69
2023/05/24 00:09:57;;;;;;;9.30;3.10;;;;;;;;;;5003783;28;20183;-70
2023/05/24 00:12:22;;;;;;;15.97;3.33;;;;;;;;;;5005588;28;20203;-69
2023/05/24 00:14:47;;;;;;;9.73;4.10;;;;;;;;;;5005534;28;20266;-69
2023/05/24 00:17:12;;;;;;;13.00;4.13;;;;;;;;;;4998449;28;20794;-69
2023/05/24 00:19:38;;;;;;;8.27;3.63;;;;;;;;;;5002791;28;20198;-70
2023/05/24 00:22:03;;;;;;;9.57;4.37;;;;;;;;;;5011378;22;20238;-74
2023/05/24 00:24:28;;;;;;;7.47;3.40;;;;;;;;;;4990480;28;20226;-75
2023/05/24 00:26:53;;;;;;;9.03;3.67;;;;;;;;;;4993077;28;20226;-75
2023/05/24 00:29:19;;;;;;;10.83;2.80;;;;;;;;;;4988530;28;20187;-75
2023/05/24 00:31:44;;;;;;;6.13;2.63;;;;;;;;;;4989310;28;20188;-75
2023/05/24 00:34:09;;;;;;;7.70;2.87;;;;;;;;;;4985419;28;20183;-75
2023/05/24 00:36:36;;;;;;;16.90;3.83;;;;;;;;;;4983818;28;20187;-75
2023/05/24 00:39:02;;;;;;;6.87;3.77;;;;;;;;;;4988767;28;20267;-76
2023/05/24 00:41:27;;;;;;;6.70;3.67;;;;;;;;;;4992713;28;20262;-75
2023/05/24 00:43:52;;;;;;;11.87;3.63;;;;;;;;;;4991126;28;20230;-76
2023/05/24 00:46:21;;;;;;;12.63;3.70;;;;;;;;;;4994622;28;20176;-75
2023/05/24 00:48:47;;;;;;;8.10;3.40;;;;;;;;;;4992586;28;20251;-75
2023/05/24 00:51:13;;;;;;;15.03;3.50;;;;;;;;;;4992883;28;20180;-75
2023/05/24 00:53:39;;;;;;;14.63;4.40;;;;;;;;;;5005861;28;20188;-75
2023/05/24 00:56:04;;;;;;;13.50;3.67;;;;;;;;;;4993087;28;20197;-75
2023/05/24 00:58:30;;;;;;;12.43;4.00;;;;;;;;;;4989375;28;20334;-75
2023/05/24 01:00:58;;;;;;;14.00;4.90;;;;;;;;;;5003296;28;20241;-75
2023/05/24 01:03:23;;;;;;;9.27;3.43;;;;;;;;;;4988658;28;20214;-75
2023/05/24 01:05:49;;;;;;;13.17;3.50;;;;;;;;;;4988228;28;20179;-75
2023/05/24 01:08:25;;;;;;;9.10;3.90;;;;;;;;;;5001346;28;20326;-75
2023/05/24 01:10:55;;;;;;;13.33;3.77;;;;;;;;;;4980299;28;20186;-75
2023/05/24 01:13:30;;;;;;;13.07;3.63;;;;;;;;;;4987906;28;20192;-75
2023/05/24 01:16:00;;;;;;;10.37;3.87;;;;;;;;;;4986797;28;20301;-75
2023/05/24 01:18:29;;;;;;;11.33;4.00;;;;;;;;;;4986705;28;20199;-75
2023/05/24 01:21:20;;;;;;;10.97;3.27;;;;;;;;;;4989071;28;20237;-75
2023/05/24 01:24:05;;;;;;;11.77;3.60;;;;;;;;;;4987141;28;20214;-75
2023/05/24 01:26:37;;;;;;;10.20;3.67;;;;;;;;;;4980087;28;20187;-75
2023/05/24 01:29:03;;;;;;;9.77;4.17;;;;;;;;;;4994434;28;20272;-75
2023/05/24 01:31:28;;;;;;;11.47;3.67;;;;;;;;;;4996256;28;20265;-75
2023/05/24 01:33:54;;;;;;;7.87;3.50;;;;;;;;;;4992462;28;20685;-75
2023/05/24 01:36:19;;;;;;;11.47;3.60;;;;;;;;;;4995533;28;20225;-76
2023/05/24 01:38:45;;;;;;;9.53;3.47;;;;;;;;;;4993141;28;20183;-75
2023/05/24 01:41:17;;;;;;;5.87;3.23;;;;;;;;;;4992734;28;20195;-75
2023/05/24 01:43:45;;;;;;;9.83;4.37;;;;;;;;;;4985757;28;20187;-75
2023/05/24 01:46:45;;;;;;;12.33;4.30;;;;;;;;;;4992257;28;20179;-75
2023/05/24 01:49:21;;;;;;;9.77;3.87;;;;;;;;;;4931349;29;20178;-76
2023/05/24 01:51:58;;;;;;;12.23;4.70;;;;;;;;;;4980546;28;20211;-76
2023/05/24 01:54:25;;;;;;;12.43;3.43;;;;;;;;;;4984231;28;20195;-76
2023/05/24 01:56:51;;;;;;;10.17;3.73;;;;;;;;;;4985922;28;20211;-76
2023/05/24 01:59:17;;;;;;;14.00;4.13;;;;;;;;;;4986725;28;20179;-75
2023/05/24 02:01:42;;;;;;;10.63;4.17;;;;;;;;;;4983463;28;20204;-75
2023/05/24 02:04:07;;;;;;;12.23;4.60;;;;;;;;;;4985814;28;20676;-75
2023/05/24 02:06:32;;;;;;;7.20;4.13;;;;;;;;;;4987178;28;20183;-75
2023/05/24 02:08:57;;;;;;;18.10;4.53;;;;;;;;;;5001628;28;20195;-75
2023/05/24 02:11:23;;;;;;;14.27;4.70;;;;;;;;;;4983381;28;20316;-76
2023/05/24 02:13:48;;;;;;;12.13;4.83;;;;;;;;;;4986684;28;20203;-75
2023/05/24 02:16:13;;;;;;;9.57;4.37;;;;;;;;;;4983643;28;20172;-75
2023/05/24 02:18:39;;;;;;;11.80;3.50;;;;;;;;;;4984600;28;20192;-76
2023/05/24 02:21:04;;;;;;;10.90;4.33;;;;;;;;;;4983813;28;20187;-75
2023/05/24 02:23:30;;;;;;;10.10;4.40;;;;;;;;;;4984665;28;20203;-75
2023/05/24 02:25:55;;;;;;;10.50;5.10;;;;;;;;;;4982955;28;20194;-75
2023/05/24 02:28:20;;;;;;;11.53;4.10;;;;;;;;;;4983269;28;20194;-75
2023/05/24 02:30:46;;;;;;;13.27;3.80;;;;;;;;;;5006945;28;20179;-75
2023/05/24 02:33:11;;;;;;;12.30;4.40;;;;;;;;;;4989906;28;20325;-76
2023/05/24 02:35:36;;;;;;;13.47;4.83;;;;;;;;;;4988204;28;20219;-75
2023/05/24 02:38:05;;;;;;;9.57;4.33;;;;;;;;;;4991594;28;20322;-75
2023/05/24 02:40:30;;;;;;;6.70;3.97;;;;;;;;;;4991111;28;20179;-75
2023/05/24 02:42:55;;;;;;;10.07;4.40;;;;;;;;;;4990879;28;20625;-75
2023/05/24 02:45:20;;;;;;;9.67;4.47;;;;;;;;;;4990531;28;20222;-74
2023/05/24 02:47:46;;;;;;;16.47;5.20;;;;;;;;;;4991382;28;20191;-75
2023/05/24 02:50:11;;;;;;;16.57;5.03;;;;;;;;;;4986101;28;20219;-74
2023/05/24 02:52:36;;;;;;;10.00;4.20;;;;;;;;;;4989114;28;20561;-75
2023/05/24 02:55:01;;;;;;;11.33;4.33;;;;;;;;;;4984855;28;20235;-75
2023/05/24 02:57:27;;;;;;;10.70;4.63;;;;;;;;;;4982238;28;20180;-74
2023/05/24 02:59:53;;;;;;;13.00;4.93;;;;;;;;;;4982745;28;20176;-75
2023/05/24 03:02:18;;;;;;;16.97;4.23;;;;;;;;;;4986169;28;20593;-75
2023/05/24 03:04:43;;;;;;;8.67;4.47;;;;;;;;;;4985412;28;20183;-75
2023/05/24 03:07:09;;;;;;;13.90;4.73;;;;;;;;;;4983325;28;20179;-75
2023/05/24 03:09:34;;;;;;;12.63;4.27;;;;;;;;;;4979528;28;20175;-75
2023/05/24 03:12:00;;;;;;;11.23;4.33;;;;;;;;;;4983837;28;20199;-75
2023/05/24 03:14:25;;;;;;;10.97;3.63;;;;;;;;;;4989539;28;20239;-74
2023/05/24 03:16:51;;;;;;;14.90;4.87;;;;;;;;;;4990309;28;20177;-75
2023/05/24 03:19:16;;;;;;;11.87;4.53;;;;;;;;;;4983209;28;20168;-75
2023/05/24 03:21:42;;;;;;;14.43;4.43;;;;;;;;;;4983879;28;20254;-75
2023/05/24 03:24:08;;;;;;;9.80;4.43;;;;;;;;;;4983969;28;20695;-75
2023/05/24 03:26:33;;;;;;;17.13;5.10;;;;;;;;;;4987445;28;20692;-75
2023/05/24 03:28:58;;;;;;;13.67;4.70;;;;;;;;;;4991332;28;20198;-76
2023/05/24 03:31:25;;;;;;;10.60;4.50;;;;;;;;;;4989032;28;20242;-75
2023/05/24 03:33:50;;;;;;;23.80;4.90;;;;;;;;;;4991077;28;20219;-75
2023/05/24 03:36:15;;;;;;;9.30;4.17;;;;;;;;;;4990834;28;20475;-75
2023/05/24 03:38:40;;;;;;;13.93;4.43;;;;;;;;;;4993970;28;20211;-75
2023/05/24 03:41:06;;;;;;;14.30;4.37;;;;;;;;;;4996037;28;20728;-75
2023/05/24 03:43:31;;;;;;;9.83;4.77;;;;;;;;;;5008063;28;20273;-75
2023/05/24 03:45:56;;;;;;;10.53;3.63;;;;;;;;;;4992154;28;20258;-75
2023/05/24 03:48:21;;;;;;;10.07;4.00;;;;;;;;;;4991313;28;20661;-75
2023/05/24 03:50:47;;;;;;;9.70;4.33;;;;;;;;;;4990750;28;20192;-75
2023/05/24 03:53:12;;;;;;;12.80;4.47;;;;;;;;;;4990587;28;20592;-76
2023/05/24 03:55:37;;;;;;;19.40;7.20;;;;;;;;;;4989980;28;20305;-75
2023/05/24 03:58:02;;;;;;;17.07;5.20;;;;;;;;;;4992053;28;20186;-75
2023/05/24 04:00:28;;;;;;;16.17;4.90;;;;;;;;;;4991966;28;20171;-75
2023/05/24 04:02:54;;;;;;;13.67;4.40;;;;;;;;;;4991615;28;20582;-76
2023/05/24 04:05:20;;;;;;;12.27;4.70;;;;;;;;;;4988134;28;20187;-76
2023/05/24 04:07:45;;;;;;;12.33;4.33;;;;;;;;;;4990881;28;20261;-75
2023/05/24 04:10:10;;;;;;;11.57;4.23;;;;;;;;;;4978613;28;20278;-75
2023/05/24 04:12:36;;;;;;;12.27;4.43;;;;;;;;;;4993786;28;20713;-75
2023/05/24 04:15:01;;;;;;;15.40;5.13;;;;;;;;;;4990610;28;20203;-75
2023/05/24 04:17:31;;;;;;;6.63;3.83;;;;;;;;;;4990600;28;20303;-75
2023/05/24 04:19:56;;;;;;;10.73;4.47;;;;;;;;;;4989441;28;20171;-75
2023/05/24 04:22:21;;;;;;;17.10;5.90;;;;;;;;;;4992041;28;20225;-75
2023/05/24 04:24:48;;;;;;;10.43;3.93;;;;;;;;;;4991310;28;20256;-75
2023/05/24 04:27:13;;;;;;;15.47;5.03;;;;;;;;;;4990765;28;20278;-75
2023/05/24 04:29:39;;;;;;;8.40;4.40;;;;;;;;;;4990210;28;20620;-75
2023/05/24 04:32:05;;;;;;;12.77;4.30;;;;;;;;;;4991767;28;20211;-76
2023/05/24 04:34:32;;;;;;;15.93;4.57;;;;;;;;;;4991583;28;20214;-75
2023/05/24 04:36:58;;;;;;;13.83;4.00;;;;;;;;;;4990080;28;20186;-75
2023/05/24 04:39:23;;;;;;;11.77;4.10;;;;;;;;;;4987222;28;20260;-76
2023/05/24 04:41:53;;;;;;;14.63;4.00;;;;;;;;;;4983650;28;20199;-76
2023/05/24 04:44:19;;;;;;;13.83;3.67;;;;;;;;;;4981473;28;20192;-75
2023/05/24 04:46:44;;;;;;;11.23;4.13;;;;;;;;;;5000727;28;20207;-76
2023/05/24 04:49:09;;;;;;;7.47;3.77;;;;;;;;;;4987187;28;20645;-76
2023/05/24 04:51:37;;;;;;;7.97;3.67;;;;;;;;;;4986210;28;20200;-74
2023/05/24 04:54:07;;;;;;;10.67;3.77;;;;;;;;;;4983584;28;20275;-73
2023/05/24 04:56:32;;;;;;;14.73;4.00;;;;;;;;;;4986306;28;20180;-73
2023/05/24 04:58:57;;;;;;;11.43;3.87;;;;;;;;;;4987053;28;20773;-76
2023/05/24 05:01:23;;;;;;;14.93;4.00;;;;;;;;;;4986232;28;20588;-74
2023/05/24 05:03:48;;;;;;;9.80;3.90;;;;;;;;;;4986838;28;20331;-74
2023/05/24 05:06:14;;;;;;;9.33;3.43;;;;;;;;;;4986751;28;20214;-74
2023/05/24 05:08:39;;;;;;;9.23;3.57;;;;;;;;;;4984487;28;20283;-76
2023/05/24 05:11:04;;;;;;;18.60;3.50;;;;;;;;;;4986344;28;20205;-74
2023/05/24 05:13:29;;;;;;;12.27;4.13;;;;;;;;;;4994374;28;20207;-74
2023/05/24 05:15:55;;;;;;;12.20;4.23;;;;;;;;;;4989629;28;20216;-74
2023/05/24 05:18:20;;;;;;;12.90;3.77;;;;;;;;;;4985162;28;20180;-74
2023/05/24 05:20:45;;;;;;;10.63;4.30;;;;;;;;;;4983892;28;20188;-74
2023/05/24 05:23:10;;;;;;;10.43;4.10;;;;;;;;;;4985761;28;20217;-75
2023/05/24 05:25:36;;;;;;;9.13;3.87;;;;;;;;;;4989902;28;20241;-74
2023/05/24 05:28:01;;;;;;;9.17;5.17;;;;;;;;;;4988001;28;20299;-74
2023/05/24 05:30:26;;;;;;;14.13;3.70;;;;;;;;;;4985656;28;20184;-74
2023/05/24 05:32:51;;;;;;;13.03;4.00;;;;;;;;;;4986659;28;20218;-75
2023/05/24 05:35:16;;;;;;;16.70;5.03;;;;;;;;;;4987160;28;20561;-76
2023/05/24 05:37:42;;;;;;;8.70;4.03;;;;;;;;;;4979888;28;20186;-76
2023/05/24 05:40:07;;;;;;;10.90;4.30;;;;;;;;;;4986394;28;20184;-75
2023/05/24 05:42:32;;;;;;;15.37;4.00;;;;;;;;;;4984133;28;20287;-76
2023/05/24 05:44:57;;;;;;;10.13;4.10;;;;;;;;;;5001116;28;20188;-75
2023/05/24 05:47:23;;;;;;;9.27;4.40;;;;;;;;;;4984923;28;20191;-75
2023/05/24 05:49:48;;;;;;;13.53;5.07;;;;;;;;;;4985867;28;20184;-75
2023/05/24 05:52:13;;;;;;;14.20;4.43;;;;;;;;;;4985919;28;20234;-75
2023/05/24 05:54:38;;;;;;;13.87;4.50;;;;;;;;;;4985874;28;20210;-75
2023/05/24 05:57:04;;;;;;;13.00;3.53;;;;;;;;;;4986242;28;20709;-76
2023/05/24 05:59:29;;;;;;;16.23;4.55;;;;;;;;;;4986012;28;20199;-75
2023/05/24 06:01:55;;;;;;;15.27;5.18;;;;;;;;;;4978993;28;20589;-76
2023/05/24 06:04:21;;;;;;;12.18;4.18;;;;;;;;;;4985661;28;21636;-75
2023/05/24 06:06:48;;;;;;;8.85;4.38;;;;;;;;;;4986137;28;20183;-76
2023/05/24 06:09:14;;;;;;;19.10;5.50;;;;;;;;;;4984677;28;20187;-76
2023/05/24 06:11:43;;;;;;;14.75;4.07;;;;;;;;;;4987042;28;20626;-76
2023/05/24 06:14:10;;;;;;;13.57;4.30;;;;;;;;;;4986087;28;20703;-75
2023/05/24 06:16:40;;;;;;;12.32;5.00;;;;;;;;;;4986250;28;20207;-75
2023/05/24 06:19:05;;;;;;;14.50;5.25;;;;;;;;;;4987651;28;20592;-75
2023/05/24 06:24:03;;;;;;;11.57;4.60;;;;;;;;;;4981675;28;20302;-69
2023/05/24 06:26:29;;;;;;;11.75;5.18;;;;;;;;;;4983440;28;20211;-69
2023/05/24 06:28:54;;;;;;;11.25;3.92;;;;;;;;;;4983595;28;20211;-69
2023/05/24 06:31:20;;;;;;;12.02;4.90;;;;;;;;;;4984476;28;20245;-69
2023/05/24 06:33:45;;;;;;;12.00;4.00;;;;;;;;;;4981608;28;20198;-69
2023/05/24 06:36:10;;;;;;;12.80;4.43;;;;;;;;;;4982155;28;20204;-69
2023/05/24 06:38:35;;;;;;;9.13;3.50;;;;;;;;;;4981012;28;20180;-69
2023/05/24 06:41:00;;;;;;;12.23;4.30;;;;;;;;;;4983209;28;20702;-69
2023/05/24 06:43:26;;;;;;;13.52;3.88;;;;;;;;;;4980652;28;20204;-69
2023/05/24 06:45:51;;;;;;;12.93;3.40;;;;;;;;;;4981456;28;20184;-69
2023/05/24 06:48:16;;;;;;;11.32;3.42;;;;;;;;;;4981933;28;20606;-69
2023/05/24 06:50:42;;;;;;;9.20;3.83;;;;;;;;;;4982769;28;20237;-68
2023/05/24 06:53:07;;;;;;;11.32;3.60;;;;;;;;;;4989213;28;20206;-69
2023/05/24 06:55:32;;;;;;;9.45;4.00;;;;;;;;;;4988237;28;20589;-69
2023/05/24 06:57:57;;;;;;;12.20;4.10;;;;;;;;;;4983782;28;20235;-69
2023/05/24 07:00:23;;;;;;;12.18;3.75;;;;;;;;;;4975788;28;20176;-69
2023/05/24 07:02:48;;;;;;;16.02;3.83;;;;;;;;;;4991269;28;20567;-68
2023/05/24 07:05:13;;;;;;;11.27;4.05;;;;;;;;;;4987533;28;20258;-69
2023/05/24 07:07:39;;;;;;;8.23;3.20;;;;;;;;;;4982416;28;20267;-68
2023/05/24 07:10:07;;;;;;;9.77;2.95;;;;;;;;;;4980607;28;20181;-68
2023/05/24 07:12:33;;;;;;;11.65;2.72;;;;;;;;;;4982440;28;20227;-69
2023/05/24 07:14:58;;;;;;;7.95;2.67;;;;;;;;;;4981966;28;20287;-68
2023/05/24 07:17:23;;;;;;;7.85;2.80;;;;;;;;;;4979381;28;20211;-71
2023/05/24 07:19:48;;;;;;;9.30;2.70;;;;;;;;;;4983136;28;20545;-69
2023/05/24 07:22:14;;;;;;;11.00;3.20;;;;;;;;;;4989302;28;20219;-69
2023/05/24 07:24:39;;;;;;;7.30;2.47;;;;;;;;;;4983042;28;20199;-69
2023/05/24 07:27:04;;;;;;;5.93;2.75;;;;;;;;;;4986014;28;20179;-69
2023/05/24 07:29:29;;;;;;;9.93;2.92;;;;;;;;;;4988930;28;20185;-69
2023/05/24 07:31:55;;;;;;;12.02;3.78;;;;;;;;;;4990334;28;20669;-69
2023/05/24 07:34:21;;;;;;;7.82;3.65;;;;;;;;;;4988049;28;20653;-69
2023/05/24 07:36:47;;;;;;;9.02;3.08;;;;;;;;;;4988429;28;20239;-69
2023/05/24 07:39:14;;;;;;;17.25;4.05;;;;;;;;;;4976137;28;20175;-69
2023/05/24 07:41:39;;;;;;;7.55;3.13;;;;;;;;;;4987298;28;20188;-69
2023/05/24 07:44:05;;;;;;;11.85;3.40;;;;;;;;;;4983442;28;20194;-69
2023/05/24 07:46:30;;;;;;;8.95;3.67;;;;;;;;;;4969001;28;20187;-69
2023/05/24 07:48:55;;;;;;;8.18;3.15;;;;;;;;;;4967761;28;20179;-69
2023/05/24 07:51:21;;;;;;;11.63;3.58;;;;;;;;;;4969215;28;20176;-70
2023/05/24 07:53:46;;;;;;;6.82;3.00;;;;;;;;;;4967179;28;20219;-70
2023/05/24 07:56:11;;;;;;;6.95;2.83;;;;;;;;;;4968706;28;20208;-69
2023/05/24 07:58:39;;;;;;;8.85;2.65;;;;;;;;;;4968548;28;20222;-70
2023/05/24 08:01:05;;;;;;;8.93;3.97;;;;;;;;;;4968725;28;20184;-69
2023/05/24 08:03:31;;;;;;;9.75;2.72;;;;;;;;;;4967583;28;20215;-70
2023/05/24 08:05:56;;;;;;;11.70;2.80;;;;;;;;;;4966429;28;20266;-70
2023/05/24 08:08:21;;;;;;;5.97;2.35;;;;;;;;;;4973473;28;20183;-70
2023/05/24 08:10:47;;;;;;;7.40;2.13;;;;;;;;;;4967528;28;20215;-70
2023/05/24 08:13:12;;;;;;;9.98;2.88;;;;;;;;;;4970706;28;20462;-70
2023/05/24 08:15:37;;;;;;;5.73;2.30;;;;;;;;;;4968397;28;20212;-70
2023/05/24 08:18:03;;;;;;;8.10;2.73;;;;;;;;;;4969594;28;20919;-70
2023/05/24 08:20:29;;;;;;;7.90;2.28;;;;;;;;;;4967683;28;20954;-70
2023/05/24 08:22:54;;;;;;;6.35;2.10;;;;;;;;;;4971335;28;20207;-70
2023/05/24 08:25:19;;;;;;;11.07;2.50;;;;;;;;;;4968910;28;20195;-69
2023/05/24 08:27:45;;;;;;;5.40;2.15;;;;;;;;;;4972749;28;20180;-69
2023/05/24 08:30:12;;;;;;;6.22;2.20;;;;;;;;;;4969614;28;20642;-69
2023/05/24 08:32:38;;;;;;;7.97;2.65;;;;;;;;;;4970997;28;20294;-69
2023/05/24 08:35:03;;;;;;;5.32;1.90;;;;;;;;;;4973378;28;20226;-68
2023/05/24 08:37:30;;;;;;;10.20;2.33;;;;;;;;;;4970715;28;20267;-70
2023/05/24 08:39:55;;;;;;;5.35;2.10;;;;;;;;;;4974020;28;20769;-69
2023/05/24 08:42:22;;;;;;;8.02;2.22;;;;;;;;;;4976034;28;20203;-69
2023/05/24 08:44:52;;;;;;;5.82;2.30;;;;;;;;;;4972437;28;20183;-69
2023/05/24 08:47:18;;;;;;;3.83;2.15;;;;;;;;;;4974394;28;20323;-69
2023/05/24 08:49:44;;;;;;;4.70;2.33;;;;;;;;;;4972821;28;20245;-69
2023/05/24 08:52:11;;;;;;;10.25;2.47;;;;;;;;;;4972215;28;20613;-70
2023/05/24 08:54:36;;;;;;;5.63;2.05;;;;;;;;;;4970041;28;20227;-70
2023/05/24 08:57:02;;;;;;;6.68;1.80;;;;;;;;;;4970649;28;20709;-70
2023/05/24 08:59:27;;;;;;;8.10;2.80;;;;;;;;;;4972574;28;20592;-70
2023/05/24 09:01:53;;;;;;;7.60;1.98;;;;;;;;;;4971114;28;20251;-70
2023/05/24 09:04:19;;;;;;;6.65;2.17;;;;;;;;;;4969891;28;21980;-70
2023/05/24 09:06:44;;;;;;;10.02;2.53;;;;;;;;;;4972251;28;20180;-70
2023/05/24 09:09:10;;;;;;;7.05;2.30;;;;;;;;;;4969639;28;20275;-70
2023/05/24 09:11:36;;;;;;;9.85;2.60;;;;;;;;;;4972098;28;20789;-68
2023/05/24 09:14:01;;;;;;;6.93;2.30;;;;;;;;;;4973404;28;20273;-70
2023/05/24 09:16:26;;;;;;;5.20;2.08;;;;;;;;;;4972380;28;20589;-70
2023/05/24 09:18:52;;;;;;;7.88;1.98;;;;;;;;;;4971215;28;20266;-69
2023/05/24 09:21:17;;;;;;;3.80;1.40;;;;;;;;;;4971472;28;20192;-70
2023/05/24 09:23:43;;;;;;;10.00;2.33;;;;;;;;;;4969753;28;20572;-70
2023/05/24 09:26:09;;;;;;;6.88;1.88;;;;;;;;;;4971886;28;20263;-69
2023/05/24 09:28:35;;;;;;;11.88;2.42;;;;;;;;;;4970638;28;20189;-70
2023/05/24 09:31:01;;;;;;;7.38;2.08;;;;;;;;;;4971862;28;20187;-70
2023/05/24 09:33:27;;;;;;;4.85;2.42;;;;;;;;;;4961136;28;20285;-70
2023/05/24 09:35:56;;;;;;;10.00;3.95;;;;;;;;;;4970731;28;20282;-69
2023/05/24 09:38:21;;;;;;;4.95;2.17;;;;;;;;;;4972513;28;20182;-69
2023/05/24 09:40:56;;;;;;;9.32;2.20;;;;;;;;;;4977100;28;20192;-70
2023/05/24 09:43:21;;;;;;;8.20;2.50;;;;;;;;;;4968665;28;20204;-70
2023/05/24 09:45:48;;;;;;;7.72;3.20;;;;;;;;;;4969323;28;20571;-70
2023/05/24 09:48:14;;;;;;;3.92;1.88;;;;;;;;;;4972238;28;20801;-69
2023/05/24 09:50:39;;;;;;;7.90;2.63;;;;;;;;;;4973243;28;20175;-69
2023/05/24 09:53:05;;;;;;;6.35;2.33;;;;;;;;;;4970884;28;20193;-70
2023/05/24 09:55:34;;;;;;;8.65;2.53;;;;;;;;;;4968961;28;20660;-70
2023/05/24 09:58:11;;;;;;;8.77;2.22;;;;;;;;;;4971288;28;20191;-69
2023/05/24 10:00:40;;;;;;;6.93;2.42;;;;;;;;;;4969891;28;20258;-69
2023/05/24 10:03:06;;;;;;;7.90;2.72;;;;;;;;;;4971163;28;20196;-69
2023/05/24 10:05:32;;;;;;;7.53;3.33;;;;;;;;;;4966987;28;20207;-69
2023/05/24 10:07:57;;;;;;;8.73;3.00;;;;;;;;;;4970765;28;20187;-69
2023/05/24 10:10:25;;;;;;;5.38;2.28;;;;;;;;;;4971132;28;20186;-70
2023/05/24 10:12:51;;;;;;;6.50;2.42;;;;;;;;;;4970766;28;20222;-70
2023/05/24 10:15:16;;;;;;;9.68;2.60;;;;;;;;;;4969258;28;20681;-69
2023/05/24 10:17:41;;;;;;;7.70;2.22;;;;;;;;;;4968206;28;20203;-68
2023/05/24 10:20:07;;;;;;;12.18;2.92;;;;;;;;;;4970945;28;20195;-70
2023/05/24 10:22:38;;;;;;;5.88;2.25;;;;;;;;;;4970301;28;20233;-68
2023/05/24 10:25:05;;;;;;;9.48;2.42;;;;;;;;;;4966814;28;20208;-69
2023/05/24 10:27:31;;;;;;;9.93;2.72;;;;;;;;;;4973742;28;20879;-69
2023/05/24 10:30:04;;;;;;;7.70;2.78;;;;;;;;;;4968259;28;20176;-69
2023/05/24 10:32:31;;;;;;;6.15;2.25;;;;;;;;;;4970577;28;21855;-69
2023/05/24 10:34:59;;;;;;;8.95;2.55;;;;;;;;;;4967160;28;20187;-69
2023/05/24 10:37:25;;;;;;;8.18;2.70;;;;;;;;;;4977284;28;20659;-69
2023/05/24 10:39:51;;;;;;;5.47;2.40;;;;;;;;;;4968383;28;20278;-69
2023/05/24 10:42:16;;;;;;;9.00;2.53;;;;;;;;;;4967377;28;20678;-69
2023/05/24 10:44:42;;;;;;;8.38;2.42;;;;;;;;;;4967923;28;20389;-71
2023/05/24 10:47:10;;;;;;;6.60;2.47;;;;;;;;;;4969873;28;20207;-70
2023/05/24 10:49:36;;;;;;;5.70;2.53;;;;;;;;;;4967836;28;20191;-70
2023/05/24 10:52:05;;;;;;;5.43;2.47;;;;;;;;;;4969144;28;20199;-69
2023/05/24 10:54:30;;;;;;;7.78;2.63;;;;;;;;;;4967086;28;20957;-69
2023/05/24 10:57:00;;;;;;;7.85;2.70;;;;;;;;;;4968718;28;20184;-69
2023/05/24 10:59:26;;;;;;;7.93;2.30;;;;;;;;;;4970585;28;20267;-70
2023/05/24 11:01:56;;;;;;;6.40;2.35;;;;;;;;;;4968784;28;20261;-69
2023/05/24 11:04:21;;;;;;;7.90;2.95;;;;;;;;;;4969219;28;20672;-69
2023/05/24 11:07:08;;;;;;;6.00;2.33;;;;;;;;;;4968910;28;20179;-69
2023/05/24 11:09:34;;;;;;;7.10;2.63;;;;;;;;;;4979960;28;21179;-69
2023/05/24 11:12:06;;;;;;;5.53;2.40;;;;;;;;;;4967827;28;20206;-70
2023/05/24 11:14:32;;;;;;;7.15;2.70;;;;;;;;;;4967299;28;20187;-69
2023/05/24 11:17:01;;;;;;;6.03;2.58;;;;;;;;;;4965729;28;20207;-69
2023/05/24 11:19:34;;;;;;;6.45;2.20;;;;;;;;;;4970972;28;20195;-70
2023/05/24 11:22:00;;;;;;;10.10;3.20;;;;;;;;;;4969400;28;20346;-69
2023/05/24 11:24:26;;;;;;;10.30;3.53;;;;;;;;;;4966377;28;20633;-69
2023/05/24 11:26:51;;;;;;;10.00;2.60;;;;;;;;;;4967887;28;20990;-69
2023/05/24 11:29:19;;;;;;;6.50;2.58;;;;;;;;;;4970720;28;21575;-70
2023/05/24 11:31:48;;;;;;;8.77;2.80;;;;;;;;;;4974630;28;20682;-70
2023/05/24 11:34:13;;;;;;;6.95;2.20;;;;;;;;;;4968846;28;20542;-70
2023/05/24 11:36:39;;;;;;;7.07;2.65;;;;;;;;;;4967337;28;20210;-70
2023/05/24 11:39:07;;;;;;;9.13;2.75;;;;;;;;;;4967780;28;20263;-70
2023/05/24 11:41:34;;;;;;;6.40;2.45;;;;;;;;;;4968332;28;20216;-70
2023/05/24 11:43:59;;;;;;;10.50;2.65;;;;;;;;;;4970633;28;20176;-70
2023/05/24 11:46:25;;;;;;;8.60;2.33;;;;;;;;;;4968291;28;20211;-70
2023/05/24 11:48:56;;;;;;;11.20;2.40;;;;;;;;;;4969142;28;20701;-70
2023/05/24 11:51:31;;;;;;;4.88;2.38;;;;;;;;;;4968211;28;20241;-70
2023/05/24 11:53:57;;;;;;;8.20;3.15;;;;;;;;;;4968949;28;20657;-70
2023/05/24 11:56:23;;;;;;;6.75;2.17;;;;;;;;;;4969418;28;20253;-70
2023/05/24 11:58:52;;;;;;;5.80;2.10;;;;;;;;;;4969159;28;20192;-70
2023/05/24 12:01:24;;;;;;;7.60;2.00;;;;;;;;;;4968151;28;20188;-70
2023/05/24 12:03:49;;;;;;;7.50;2.28;;;;;;;;;;4975050;28;20217;-69
2023/05/24 12:06:15;;;;;;;6.57;2.85;;;;;;;;;;4969661;28;20223;-69
2023/05/24 12:08:40;;;;;;;5.63;2.15;;;;;;;;;;4966569;28;20180;-69
2023/05/24 12:11:06;;;;;;;6.00;1.98;;;;;;;;;;4969653;28;20172;-69
2023/05/24 12:13:31;;;;;;;8.43;2.30;;;;;;;;;;4969558;28;20214;-70
2023/05/24 12:15:57;;;;;;;5.43;2.70;;;;;;;;;;4967615;28;20402;-70
2023/05/24 12:18:22;;;;;;;6.85;2.50;;;;;;;;;;4965677;28;20308;-69
2023/05/24 12:20:48;;;;;;;6.10;2.45;;;;;;;;;;4970539;28;20179;-69
2023/05/24 12:23:14;;;;;;;9.10;2.08;;;;;;;;;;4980620;22;20390;-75
2023/05/24 12:25:39;;;;;;;7.47;1.88;;;;;;;;;;4972256;28;20212;-76
2023/05/24 12:28:04;;;;;;;8.67;2.30;;;;;;;;;;4972268;28;20229;-74
2023/05/24 12:30:30;;;;;;;7.28;1.63;;;;;;;;;;4973235;28;21204;-77
2023/05/24 12:32:56;;;;;;;5.97;2.15;;;;;;;;;;4967870;28;20244;-74
2023/05/24 12:35:21;;;;;;;6.03;1.77;;;;;;;;;;4955819;28;20306;-74
2023/05/24 12:37:47;;;;;;;4.72;2.00;;;;;;;;;;4970405;28;20180;-74
2023/05/24 12:40:19;;;;;;;4.95;1.63;;;;;;;;;;4955201;28;20227;-74
2023/05/24 12:42:58;;;;;;;9.70;2.53;;;;;;;;;;4970160;28;20298;-74
2023/05/24 12:45:24;;;;;;;8.25;1.80;;;;;;;;;;4953149;28;20666;-74
2023/05/24 12:47:53;;;;;;;7.50;2.13;;;;;;;;;;4956259;28;20203;-74
2023/05/24 12:50:18;;;;;;;4.25;1.83;;;;;;;;;;4956437;28;20638;-74
2023/05/24 12:52:47;;;;;;;6.97;2.40;;;;;;;;;;4957314;28;20209;-75
2023/05/24 12:55:15;;;;;;;4.82;2.17;;;;;;;;;;4956212;28;20266;-75
2023/05/24 12:57:41;;;;;;;7.03;2.10;;;;;;;;;;4968594;28;20195;-75
2023/05/24 13:00:06;;;;;;;6.80;2.05;;;;;;;;;;4954674;28;20180;-75
2023/05/24 13:02:32;;;;;;;6.65;1.85;;;;;;;;;;4972149;28;20203;-75
2023/05/24 13:04:57;;;;;;;8.02;2.28;;;;;;;;;;4956352;28;20192;-75
2023/05/24 13:07:22;;;;;;;4.50;1.47;;;;;;;;;;4955850;28;20235;-75
2023/05/24 13:09:48;;;;;;;4.80;2.17;;;;;;;;;;4958138;28;20501;-75
2023/05/24 13:12:13;;;;;;;5.28;1.80;;;;;;;;;;4975885;28;20191;-75
2023/05/24 13:14:38;;;;;;;7.80;1.85;;;;;;;;;;4960839;28;20200;-75
2023/05/24 13:17:03;;;;;;;6.00;1.83;;;;;;;;;;4959861;28;20179;-75
2023/05/24 13:19:29;;;;;;;7.30;2.08;;;;;;;;;;4976465;28;20438;-75
2023/05/24 13:21:54;;;;;;;8.13;2.30;;;;;;;;;;4963071;28;21025;-74
2023/05/24 13:24:19;;;;;;;6.43;2.10;;;;;;;;;;4973865;28;20616;-74
2023/05/24 13:26:45;;;;;;;6.85;2.58;;;;;;;;;;4974718;28;20192;-74
2023/05/24 13:29:11;;;;;;;7.78;1.80;;;;;;;;;;4981619;28;20176;-74
2023/05/24 13:31:37;;;;;;;10.40;2.45;;;;;;;;;;4976193;28;20192;-74
2023/05/24 13:34:02;;;;;;;7.63;2.08;;;;;;;;;;4970950;28;20702;-74
2023/05/24 13:36:27;;;;;;;7.70;2.20;;;;;;;;;;4959182;28;20196;-74
2023/05/24 13:38:53;;;;;;;6.88;1.85;;;;;;;;;;4972922;28;20990;-74
2023/05/24 13:41:18;;;;;;;6.53;1.98;;;;;;;;;;4958060;28;20277;-75
2023/05/24 13:43:44;;;;;;;10.07;2.15;;;;;;;;;;4957692;28;20223;-75
2023/05/24 13:46:09;;;;;;;6.15;1.25;;;;;;;;;;4958485;28;20212;-75
2023/05/24 13:48:34;;;;;;;6.97;1.90;;;;;;;;;;4956767;28;20187;-75
2023/05/24 13:51:00;;;;;;;4.85;2.15;;;;;;;;;;4958567;28;20176;-75
2023/05/24 13:53:25;;;;;;;9.05;1.58;;;;;;;;;;4958822;28;20212;-75
2023/05/24 13:55:51;;;;;;;7.90;1.88;;;;;;;;;;4959695;28;20212;-75
2023/05/24 13:58:16;;;;;;;5.70;1.48;;;;;;;;;;4973433;28;20566;-75
2023/05/24 14:00:41;;;;;;;6.55;2.30;;;;;;;;;;4957193;28;20194;-75
2023/05/24 14:03:06;;;;;;;2.70;1.50;;;;;;;;;;4957599;28;20709;-75
2023/05/24 14:05:32;;;;;;;4.55;1.80;;;;;;;;;;4956175;28;20204;-75
2023/05/24 14:08:02;;;;;;;4.97;1.90;;;;;;;;;;4957832;28;20204;-75
2023/05/24 14:10:28;;;;;;;4.97;1.67;;;;;;;;;;4958170;28;20184;-75
2023/05/24 14:12:53;;;;;;;8.95;2.17;;;;;;;;;;4962959;28;21235;-75
2023/05/24 14:15:18;;;;;;;4.22;1.60;;;;;;;;;;4958004;28;20239;-75
2023/05/24 14:17:43;;;;;;;10.13;1.43;;;;;;;;;;4970106;28;20222;-75
2023/05/24 14:20:09;;;;;;;3.95;1.98;;;;;;;;;;4971993;28;20449;-75
2023/05/24 14:22:34;;;;;;;6.28;1.83;;;;;;;;;;4957100;28;20192;-76
2023/05/24 14:24:59;;;;;;;7.93;2.17;;;;;;;;;;4972927;28;20291;-75
2023/05/24 14:27:25;;;;;;;6.15;1.50;;;;;;;;;;4974885;28;20191;-75
2023/05/24 14:29:50;;;;;;;5.30;1.65;;;;;;;;;;4958937;28;20220;-76
2023/05/24 14:32:16;;;;;;;6.15;1.73;;;;;;;;;;4957080;28;20184;-75
2023/05/24 14:34:41;;;;;;;5.72;1.50;;;;;;;;;;4970011;28;20227;-76